Time;durP1;ratioP1;P1;durP2;ratioP2;P2;SDS_P1;SDS_P2;PMS_P1;PMS_P2;Temp;Humidity;BMP_temperature;BMP_pressure;BME280_temperature;BME280_humidity;BME280_pressure;Samples;Min_cycle;Max_cycle;Signal;HPM_P1;HPM_P2
2023/11/24 00:00:12;;;;;;;;;;;;;;;7.91;95.82;99625.19;4219576;28;20022;-68
2023/11/24 00:02:14;;;;;;;;;;;;;;;7.89;96.02;99642.56;4219525;28;20023;-70
2023/11/24 00:04:16;;;;;;;;;;;;;;;7.90;95.59;99636.16;4219915;28;20398;-69
2023/11/24 00:06:19;;;;;;;;;;;;;;;7.86;95.68;99635.69;4220084;28;20019;-69
2023/11/24 00:08:21;;;;;;;;;;;;;;;7.85;95.37;99633.19;4220532;28;20011;-70
2023/11/24 00:10:23;;;;;;;;;;;;;;;7.83;94.92;99619.94;4220266;28;20468;-70
2023/11/24 00:12:26;;;;;;;;;;;;;;;7.82;94.71;99617.41;4220167;28;20015;-71
2023/11/24 00:14:28;;;;;;;;;;;;;;;7.82;94.83;99618.28;4219901;28;20010;-70
2023/11/24 00:16:30;;;;;;;;;;;;;;;7.80;94.33;99609.53;4221323;28;20027;-69
2023/11/24 00:18:33;;;;;;;;;;;;;;;7.77;93.22;99628.72;4220079;28;20599;-70
2023/11/24 00:20:34;;;;;;;;;;;;;;;7.80;93.60;99625.66;4220356;28;20034;-69
2023/11/24 00:22:36;;;;;;;;;;;;;;;7.79;93.60;99613.28;4220769;28;19932;-70
2023/11/24 00:24:38;;;;;;;;;;;;;;;7.76;93.23;99627.09;4220572;28;20027;-70
2023/11/24 00:26:40;;;;;;;;;;;;;;;7.71;91.66;99635.69;4219791;28;20014;-70
2023/11/24 00:28:43;;;;;;;;;;;;;;;7.71;91.42;99611.50;4220434;28;20018;-69
2023/11/24 00:30:45;;;;;;;;;;;;;;;7.70;91.12;99634.03;4220029;28;20441;-69
2023/11/24 00:32:47;;;;;;;;;;;;;;;7.72;91.23;99623.09;4219349;28;20632;-68
2023/11/24 00:34:48;;;;;;;;;;;;;;;7.71;91.56;99633.00;4202912;28;20016;-71
2023/11/24 00:36:50;;;;;;;;;;;;;;;7.69;91.08;99648.47;4220732;28;20058;-70
2023/11/24 00:38:52;;;;;;;;;;;;;;;7.67;90.86;99655.91;4221154;28;20445;-71
2023/11/24 00:40:54;;;;;;;;;;;;;;;7.66;90.02;99650.69;4219525;28;20026;-69
2023/11/24 00:42:56;;;;;;;;;;;;;;;7.65;89.80;99657.09;4220018;28;20023;-71
2023/11/24 00:45:00;;;;;;;;;;;;;;;7.64;89.54;99650.06;4219236;28;20052;-71
2023/11/24 00:47:02;;;;;;;;;;;;;;;7.62;88.38;99641.31;4218047;28;20018;-69
2023/11/24 00:49:04;;;;;;;;;;;;;;;7.60;88.22;99638.81;4218461;28;20022;-70
2023/11/24 00:51:06;;;;;;;;;;;;;;;7.57;87.48;99637.38;4218750;28;20034;-70
2023/11/24 00:53:08;;;;;;;;;;;;;;;7.61;88.07;99631.63;4202860;28;20023;-71
2023/11/24 00:55:10;;;;;;;;;;;;;;;7.57;87.54;99648.13;4219857;28;20022;-69
2023/11/24 00:57:12;;;;;;;;;;;;;;;7.53;86.10;99644.13;4220248;28;20014;-70
2023/11/24 00:59:14;;;;;;;;;;;;;;;7.51;85.71;99642.66;4219031;28;20010;-69
2023/11/24 01:01:17;;;;;;;;;;;;;;;7.51;85.45;99645.34;4202732;28;20442;-69
2023/11/24 01:03:20;;;;;;;;;;;;;;;7.49;85.59;99644.66;4202208;28;20142;-68
2023/11/24 01:05:22;;;;;;;;;;;;;;;7.47;85.21;99649.41;4219370;28;20023;-68
2023/11/24 01:07:24;;;;;;;;;;;;;;;7.48;84.64;99643.00;4218896;28;20020;-69
2023/11/24 01:09:26;;;;;;;;;;;;;;;7.43;83.90;99640.88;4219361;28;20097;-70
2023/11/24 01:11:28;;;;;;;;;;;;;;;7.44;83.76;99649.75;4219998;28;20019;-69
2023/11/24 01:13:32;;;;;;;;;;;;;;;7.40;82.84;99654.69;4219120;28;19932;-67
2023/11/24 01:15:34;;;;;;;;;;;;;;;7.40;82.82;99643.94;4220020;28;20406;-68
2023/11/24 01:17:38;;;;;;;;;;;;;;;7.38;82.70;99643.25;4219803;28;20031;-69
2023/11/24 01:19:40;;;;;;;;;;;;;;;7.37;82.85;99630.88;4219699;28;20026;-70
2023/11/24 01:21:42;;;;;;;;;;;;;;;7.38;82.97;99654.00;4219107;28;20472;-71
2023/11/24 01:23:43;;;;;;;;;;;;;;;7.37;83.54;99641.59;4220061;28;20011;-69
2023/11/24 01:25:46;;;;;;;;;;;;;;;7.35;83.58;99644.47;4220277;28;20022;-70
2023/11/24 01:27:49;;;;;;;;;;;;;;;7.32;82.98;99642.16;4219360;28;20027;-71
2023/11/24 01:29:51;;;;;;;;;;;;;;;7.33;83.18;99634.91;4218756;28;20027;-70
2023/11/24 01:31:52;;;;;;;;;;;;;;;7.31;83.18;99626.22;4218735;28;20023;-69
2023/11/24 01:33:56;;;;;;;;;;;;;;;7.31;82.95;99642.34;4219570;28;19927;-71
2023/11/24 01:35:58;;;;;;;;;;;;;;;7.31;82.77;99635.09;4236302;27;20017;-69
2023/11/24 01:38:00;;;;;;;;;;;;;;;7.30;82.68;99640.66;4219302;28;20014;-70
2023/11/24 01:40:03;;;;;;;;;;;;;;;7.30;83.07;99637.97;4218925;28;20023;-71
2023/11/24 01:42:05;;;;;;;;;;;;;;;7.28;82.44;99626.59;4219686;28;20042;-68
2023/11/24 01:44:08;;;;;;;;;;;;;;;7.29;82.63;99636.28;4219126;28;20055;-69
2023/11/24 01:46:10;;;;;;;;;;;;;;;7.28;82.45;99637.34;4218726;28;20358;-68
2023/11/24 01:48:12;;;;;;;;;;;;;;;7.27;82.31;99627.59;4219690;28;20454;-69
2023/11/24 01:50:16;;;;;;;;;;;;;;;7.27;82.65;99635.66;4218028;28;20022;-71
2023/11/24 01:52:19;;;;;;;;;;;;;;;7.28;82.69;99629.28;4218111;28;20857;-69
2023/11/24 01:54:21;;;;;;;;;;;;;;;7.26;82.41;99628.59;4217815;28;19970;-71
2023/11/24 01:56:24;;;;;;;;;;;;;;;7.22;81.96;99631.69;4219388;28;20010;-68
2023/11/24 01:58:29;;;;;;;;;;;;;;;7.23;82.78;99645.94;4217882;28;20022;-68
2023/11/24 02:00:31;;;;;;;;;;;;;;;7.21;82.11;99680.19;4234729;27;20035;-68
2023/11/24 02:02:34;;;;;;;;;;;;;;;7.20;81.81;99722.31;4218099;28;20091;-70
2023/11/24 02:04:36;;;;;;;;;;;;;;;7.17;82.16;99703.06;4213650;28;20023;-71
2023/11/24 02:06:40;;;;;;;;;;;;;;;7.11;81.20;99715.34;4234620;27;20050;-70
2023/11/24 02:08:42;;;;;;;;;;;;;;;7.07;81.13;99702.44;4219350;28;20051;-70
2023/11/24 02:10:44;;;;;;;;;;;;;;;7.01;80.87;99701.34;4218888;28;20019;-70
2023/11/24 02:12:45;;;;;;;;;;;;;;;6.96;80.25;99691.13;4219262;28;20014;-70
2023/11/24 02:14:47;;;;;;;;;;;;;;;6.92;80.35;99695.19;4219362;28;19939;-71
2023/11/24 02:16:49;;;;;;;;;;;;;;;6.85;79.80;99684.31;4219279;28;20007;-71
2023/11/24 02:18:50;;;;;;;;;;;;;;;6.83;80.21;99675.63;4217761;28;20050;-70
2023/11/24 02:20:54;;;;;;;;;;;;;;;6.77;80.25;99660.25;4217881;28;20020;-70
2023/11/24 02:22:57;;;;;;;;;;;;;;;6.74;80.13;99665.97;4217485;28;20018;-70
2023/11/24 02:25:00;;;;;;;;;;;;;;;6.72;80.49;99653.72;4219276;28;20034;-68
2023/11/24 02:27:05;;;;;;;;;;;;;;;6.68;80.42;99658.63;4218718;28;20465;-69
2023/11/24 02:29:08;;;;;;;;;;;;;;;6.64;80.82;99657.31;4216146;28;20031;-69
2023/11/24 02:31:09;;;;;;;;;;;;;;;6.59;80.82;99668.56;4216107;27;20051;-71
2023/11/24 02:33:11;;;;;;;;;;;;;;;6.58;81.41;99649.97;4219261;28;20043;-67
2023/11/24 02:35:14;;;;;;;;;;;;;;;6.54;81.71;99648.66;4218342;28;19939;-69
2023/11/24 02:37:16;;;;;;;;;;;;;;;6.52;81.83;99634.56;4216868;28;20022;-71
2023/11/24 02:39:19;;;;;;;;;;;;;;;6.47;81.31;99645.84;4217838;28;20457;-69
2023/11/24 02:41:22;;;;;;;;;;;;;;;6.42;81.43;99640.19;4218466;28;20031;-69
2023/11/24 02:43:24;;;;;;;;;;;;;;;6.40;82.15;99637.66;4220308;28;19966;-69
2023/11/24 02:45:26;;;;;;;;;;;;;;;6.33;81.28;99639.38;4218097;28;20003;-69
2023/11/24 02:47:28;;;;;;;;;;;;;;;6.32;82.01;99635.03;4218318;28;20018;-69
2023/11/24 02:49:32;;;;;;;;;;;;;;;6.29;82.18;99638.91;4216711;28;20007;-69
2023/11/24 02:51:34;;;;;;;;;;;;;;;6.27;83.06;99637.41;4218602;28;20030;-69
2023/11/24 02:53:37;;;;;;;;;;;;;;;6.25;83.04;99640.28;4217188;28;20018;-69
2023/11/24 02:55:40;;;;;;;;;;;;;;;6.21;82.92;99633.59;4219601;28;19976;-69
2023/11/24 02:57:43;;;;;;;;;;;;;;;6.19;82.72;99632.09;4204266;28;20019;-70
2023/11/24 02:59:44;;;;;;;;;;;;;;;6.15;82.97;99615.53;4221907;28;20007;-70
2023/11/24 03:01:46;;;;;;;;;;;;;;;6.15;83.23;99622.75;4221491;28;20046;-70
2023/11/24 03:03:48;;;;;;;;;;;;;;;6.13;83.41;99625.59;4221811;28;20003;-70
2023/11/24 03:05:51;;;;;;;;;;;;;;;6.10;83.21;99629.44;4221232;27;20434;-69
2023/11/24 03:07:53;;;;;;;;;;;;;;;6.04;83.05;99623.97;4221102;28;20031;-69
2023/11/24 03:09:54;;;;;;;;;;;;;;;6.01;83.39;99614.41;4221148;28;20051;-70
2023/11/24 03:11:58;;;;;;;;;;;;;;;5.99;83.82;99631.66;4221419;28;20035;-69
2023/11/24 03:14:00;;;;;;;;;;;;;;;5.94;83.93;99633.03;4221038;28;20018;-69
2023/11/24 03:16:02;;;;;;;;;;;;;;;5.92;84.40;99620.78;4222130;28;20372;-65
2023/11/24 03:18:04;;;;;;;;;;;;;;;5.90;84.61;99631.69;4221123;27;20022;-70
2023/11/24 03:20:05;;;;;;;;;;;;;;;5.86;84.93;99624.16;4237382;27;20022;-70
2023/11/24 03:22:08;;;;;;;;;;;;;;;5.87;85.24;99624.00;4222178;28;20019;-69
2023/11/24 03:24:10;;;;;;;;;;;;;;;5.87;85.29;99621.31;4221465;28;20018;-70
2023/11/24 03:26:11;;;;;;;;;;;;;;;5.87;85.53;99625.84;4220525;28;20113;-70
2023/11/24 03:28:14;;;;;;;;;;;;;;;5.84;85.09;99618.97;4221591;28;19928;-70
2023/11/24 03:30:16;;;;;;;;;;;;;;;5.82;85.46;99626.38;4220285;28;20015;-69
2023/11/24 03:32:18;;;;;;;;;;;;;;;5.81;84.85;99635.41;4218844;28;20011;-69
2023/11/24 03:34:20;;;;;;;;;;;;;;;5.82;85.19;99628.22;4220010;28;20242;-68
2023/11/24 03:36:22;;;;;;;;;;;;;;;5.82;85.55;99641.63;4221397;28;20393;-69
2023/11/24 03:38:25;;;;;;;;;;;;;;;5.82;85.61;99634.41;4221067;28;20019;-69
2023/11/24 03:40:26;;;;;;;;;;;;;;;5.82;85.40;99634.41;4220353;28;20015;-67
2023/11/24 03:42:28;;;;;;;;;;;;;;;5.81;85.37;99630.03;4220643;27;20027;-70
2023/11/24 03:44:32;;;;;;;;;;;;;;;5.81;85.06;99637.25;4220592;27;20579;-69
2023/11/24 03:46:34;;;;;;;;;;;;;;;5.82;85.32;99630.91;4220290;28;20498;-71
2023/11/24 03:48:36;;;;;;;;;;;;;;;5.81;85.14;99631.91;4220582;28;20422;-71
2023/11/24 03:50:38;;;;;;;;;;;;;;;5.79;85.12;99624.03;4221511;28;20026;-68
2023/11/24 03:52:40;;;;;;;;;;;;;;;5.77;85.12;99618.84;4221177;28;20023;-70
2023/11/24 03:54:42;;;;;;;;;;;;;;;5.79;85.28;99624.03;4222037;28;20023;-69
2023/11/24 03:56:44;;;;;;;;;;;;;;;5.79;85.00;99618.69;4220770;28;19935;-70
2023/11/24 03:58:45;;;;;;;;;;;;;;;5.79;85.33;99621.34;4220098;27;20043;-70
2023/11/24 04:00:48;;;;;;;;;;;;;;;5.78;85.33;99622.34;4219027;27;20018;-71
2023/11/24 04:02:49;;;;;;;;;;;;;;;5.80;85.32;99615.00;4219037;28;20492;-71
2023/11/24 04:04:52;;;;;;;;;;;;;;;5.84;85.23;99615.47;4218966;28;20521;-71
2023/11/24 04:06:54;;;;;;;;;;;;;;;5.85;84.92;99598.41;4220757;28;20056;-71
2023/11/24 04:08:56;;;;;;;;;;;;;;;5.83;84.74;99597.72;4222028;27;20026;-72
2023/11/24 04:10:58;;;;;;;;;;;;;;;5.82;84.39;99604.94;4220445;28;20010;-71
2023/11/24 04:13:00;;;;;;;;;;;;;;;5.81;84.42;99594.38;4220352;28;20019;-69
2023/11/24 04:15:03;;;;;;;;;;;;;;;5.83;84.79;99603.06;4221360;28;20481;-69
2023/11/24 04:17:09;;;;;;;;;;;;;;;5.81;84.64;99599.75;4199304;28;20370;-70
2023/11/24 04:19:12;;;;;;;;;;;;;;;5.80;85.19;99606.09;4221376;27;20042;-70
2023/11/24 04:21:14;;;;;;;;;;;;;;;5.79;85.23;99607.94;4220069;28;20026;-70
2023/11/24 04:23:15;;;;;;;;;;;;;;;5.81;85.48;99621.19;4221106;28;20014;-70
2023/11/24 04:25:19;;;;;;;;;;;;;;;5.80;85.51;99620.34;4220631;28;20034;-70
2023/11/24 04:27:21;;;;;;;;;;;;;;;5.80;86.06;99619.50;4220669;28;20034;-70
2023/11/24 04:29:24;;;;;;;;;;;;;;;5.80;86.09;99616.81;4218706;28;20023;-71
2023/11/24 04:31:26;;;;;;;;;;;;;;;5.81;86.90;99613.16;4219422;28;20030;-70
2023/11/24 04:33:29;;;;;;;;;;;;;;;5.81;87.05;99611.28;4219717;28;20425;-69
2023/11/24 04:35:31;;;;;;;;;;;;;;;5.81;87.01;99589.03;4219997;28;20445;-71
2023/11/24 04:37:33;;;;;;;;;;;;;;;5.80;86.81;99593.56;4220340;28;19932;-69
2023/11/24 04:39:35;;;;;;;;;;;;;;;5.81;87.02;99605.94;4219300;28;20382;-69
2023/11/24 04:41:37;;;;;;;;;;;;;;;5.84;87.43;99597.53;4219628;28;20014;-69
2023/11/24 04:43:39;;;;;;;;;;;;;;;5.86;86.71;99597.38;4221176;28;20034;-68
2023/11/24 04:45:41;;;;;;;;;;;;;;;5.85;86.91;99583.16;4219010;28;20023;-70
2023/11/24 04:47:43;;;;;;;;;;;;;;;5.85;86.80;99587.69;4219691;28;20015;-69
2023/11/24 04:49:45;;;;;;;;;;;;;;;5.87;86.29;99582.97;4218853;28;20030;-70
2023/11/24 04:51:47;;;;;;;;;;;;;;;5.86;86.10;99589.31;4219374;28;20024;-69
2023/11/24 04:53:49;;;;;;;;;;;;;;;5.87;86.35;99569.56;4219787;28;20454;-69
2023/11/24 04:55:51;;;;;;;;;;;;;;;5.88;86.49;99580.13;4220675;28;20030;-69
2023/11/24 04:57:54;;;;;;;;;;;;;;;5.89;86.40;99591.66;4220914;28;19980;-71
2023/11/24 04:59:56;;;;;;;;;;;;;;;5.87;86.28;99594.50;4219525;28;20019;-70
2023/11/24 05:01:58;;;;;;;;;;;;;;;5.89;86.25;99586.31;4219693;28;20023;-71
2023/11/24 05:04:02;;;;;;;;;;;;;;;5.88;86.08;99581.97;4219164;28;20401;-70
2023/11/24 05:06:05;;;;;;;;;;;;;;;5.89;86.37;99571.06;4218339;28;20022;-69
2023/11/24 05:08:07;;;;;;;;;;;;;;;5.89;85.73;99563.03;4219026;28;20007;-71
2023/11/24 05:10:09;;;;;;;;;;;;;;;5.88;85.73;99566.72;4218897;28;20050;-71
2023/11/24 05:12:11;;;;;;;;;;;;;;;5.86;85.04;99562.53;4220467;28;20446;-71
2023/11/24 05:14:13;;;;;;;;;;;;;;;5.86;85.24;99555.34;4219203;28;20027;-70
2023/11/24 05:16:15;;;;;;;;;;;;;;;5.84;84.94;99556.53;4219046;28;20011;-71
2023/11/24 05:18:17;;;;;;;;;;;;;;;5.86;84.85;99555.34;4219481;28;20574;-71
2023/11/24 05:20:23;;;;;;;;;;;;;;;5.84;84.14;99549.31;4219608;28;20022;-71
2023/11/24 05:22:27;;;;;;;;;;;;;;;5.83;84.13;99555.69;4219327;28;20027;-70
2023/11/24 05:24:29;;;;;;;;;;;;;;;5.84;83.67;99567.25;4219785;28;20022;-71
2023/11/24 05:26:31;;;;;;;;;;;;;;;5.83;83.38;99565.56;4219707;28;20018;-69
2023/11/24 05:28:33;;;;;;;;;;;;;;;5.80;82.81;99566.75;4219812;28;20023;-70
2023/11/24 05:30:35;;;;;;;;;;;;;;;5.80;82.81;99574.81;4218893;28;20026;-71
2023/11/24 05:32:40;;;;;;;;;;;;;;;5.78;82.38;99572.31;4219500;28;20376;-69
2023/11/24 05:34:42;;;;;;;;;;;;;;;5.78;82.51;99563.41;4220283;28;20010;-73
2023/11/24 05:36:44;;;;;;;;;;;;;;;5.75;82.44;99567.28;4218719;27;20023;-71
2023/11/24 05:38:48;;;;;;;;;;;;;;;5.76;82.67;99568.13;4219769;28;20022;-70
2023/11/24 05:40:50;;;;;;;;;;;;;;;5.75;82.93;99569.97;4217298;28;20027;-73
2023/11/24 05:42:51;;;;;;;;;;;;;;;5.75;83.17;99569.09;4218458;28;20106;-72
2023/11/24 05:44:54;;;;;;;;;;;;;;;5.74;82.94;99576.31;4219155;28;19942;-69
2023/11/24 05:46:56;;;;;;;;;;;;;;;5.73;82.37;99573.81;4218928;28;20038;-69
2023/11/24 05:48:58;;;;;;;;;;;;;;;5.71;82.13;99570.50;4219254;28;20388;-69
2023/11/24 05:50:59;;;;;;;;;;;;;;;5.70;82.07;99560.78;4219330;28;20035;-69
2023/11/24 05:53:01;;;;;;;;;;;;;;;5.69;82.38;99565.31;4219229;28;20015;-70
2023/11/24 05:55:04;;;;;;;;;;;;;;;5.68;81.80;99557.44;4218989;28;20453;-69
2023/11/24 05:57:06;;;;;;;;;;;;;;;5.66;81.87;99562.13;4217755;28;20114;-70
2023/11/24 05:59:07;;;;;;;;;;;;;;;5.66;81.67;99568.34;4219820;28;20114;-68
2023/11/24 06:01:09;;;;;;;;;;;;;;;5.65;81.83;99566.66;4218782;28;19932;-69
2023/11/24 06:03:11;;;;;;;;;;;;;;;5.64;81.18;99567.66;4218370;28;20372;-68
2023/11/24 06:05:15;;;;;;;;;;;;;;;5.63;81.93;99563.31;4218237;28;20015;-68
2023/11/24 06:07:17;;;;;;;;;;;;;;;5.63;82.03;99566.00;4219444;28;20018;-69
2023/11/24 06:09:19;;;;;;;;;;;;;;;5.62;81.89;99567.00;4218685;28;20022;-68
2023/11/24 06:11:22;;;;;;;;;;;;;;;5.63;81.92;99570.50;4219097;28;20018;-69
2023/11/24 06:13:24;;;;;;;;;;;;;;;5.61;81.77;99562.63;4219259;28;20487;-70
2023/11/24 06:15:26;;;;;;;;;;;;;;;5.61;82.05;99581.38;4219499;28;20007;-70
2023/11/24 06:17:28;;;;;;;;;;;;;;;5.59;81.28;99576.22;4219241;28;20031;-69
2023/11/24 06:19:29;;;;;;;;;;;;;;;5.59;81.67;99562.84;4218596;28;19924;-70
2023/11/24 06:21:31;;;;;;;;;;;;;;;5.61;81.64;99570.66;4218861;28;20015;-69
2023/11/24 06:23:34;;;;;;;;;;;;;;;5.60;81.68;99569.03;4219441;28;20035;-70
2023/11/24 06:25:35;;;;;;;;;;;;;;;5.60;81.30;99556.47;4219130;28;20469;-70
2023/11/24 06:27:39;;;;;;;;;;;;;;;5.60;80.75;99561.00;4215625;28;20424;-69
2023/11/24 06:29:42;;;;;;;;;;;;;;;5.62;80.52;99553.59;4218833;28;20354;-69
2023/11/24 06:31:44;;;;;;;;;;;;;;;5.63;80.33;99554.44;4221546;28;20343;-69
2023/11/24 06:33:46;;;;;;;;;;;;;;;5.63;80.10;99547.25;4221158;28;20018;-68
2023/11/24 06:35:49;;;;;;;;;;;;;;;5.61;79.87;99546.56;4221848;28;20024;-69
2023/11/24 06:37:51;;;;;;;;;;;;;;;5.60;80.04;99550.28;4222463;28;20022;-69
2023/11/24 06:39:53;;;;;;;;;;;;;;;5.58;79.96;99553.13;4221828;28;20386;-69
2023/11/24 06:41:56;;;;;;;;;;;;;;;5.63;80.17;99549.06;4222012;28;20019;-70
2023/11/24 06:43:59;;;;;;;;;;;;;;;5.60;80.08;99540.38;4222581;28;20019;-70
2023/11/24 06:46:01;;;;;;;;;;;;;;;5.60;79.97;99544.91;4222489;28;20015;-70
2023/11/24 06:48:05;;;;;;;;;;;;;;;5.59;80.09;99541.41;4221933;28;20015;-70
2023/11/24 06:50:08;;;;;;;;;;;;;;;5.59;79.50;99543.22;4222448;28;20449;-70
2023/11/24 06:52:10;;;;;;;;;;;;;;;5.58;79.50;99542.41;4221923;28;20122;-70
2023/11/24 06:54:13;;;;;;;;;;;;;;;5.58;79.47;99542.41;4221480;28;20434;-70
2023/11/24 06:56:15;;;;;;;;;;;;;;;5.59;79.57;99527.16;4222279;28;20019;-70
2023/11/24 06:58:17;;;;;;;;;;;;;;;5.59;79.90;99535.19;4221055;28;20010;-69
2023/11/24 07:00:21;;;;;;;;;;;;;;;5.58;79.62;99539.72;4220657;28;20485;-69
2023/11/24 07:02:23;;;;;;;;;;;;;;;5.58;79.39;99545.09;4221791;28;20457;-68
2023/11/24 07:04:25;;;;;;;;;;;;;;;5.58;79.38;99541.59;4221516;28;20465;-69
2023/11/24 07:06:27;;;;;;;;;;;;;;;5.59;79.20;99537.88;4221701;28;20365;-69
2023/11/24 07:08:29;;;;;;;;;;;;;;;5.61;79.32;99546.56;4221569;28;20026;-67
2023/11/24 07:10:31;;;;;;;;;;;;;;;5.61;79.86;99546.56;4222343;28;20019;-68
2023/11/24 07:12:32;;;;;;;;;;;;;;;5.62;80.13;99531.34;4205294;28;20385;-69
2023/11/24 07:14:34;;;;;;;;;;;;;;;5.65;80.13;99539.88;4221515;28;19928;-70
2023/11/24 07:16:43;;;;;;;;;;;;;;;5.66;79.77;99540.69;4221289;28;20014;-70
2023/11/24 07:18:45;;;;;;;;;;;;;;;5.65;79.41;99541.72;4221727;28;20023;-70
2023/11/24 07:20:47;;;;;;;;;;;;;;;5.64;79.52;99538.19;4219672;28;19928;-66
2023/11/24 07:22:49;;;;;;;;;;;;;;;5.65;79.45;99531.00;4220325;28;20018;-69
2023/11/24 07:24:51;;;;;;;;;;;;;;;5.62;78.60;99532.16;4218306;28;20016;-68
2023/11/24 07:26:54;;;;;;;;;;;;;;;5.66;79.09;99522.78;4221096;28;20386;-69
2023/11/24 07:28:57;;;;;;;;;;;;;;;5.67;79.37;99520.94;4220857;28;20031;-69
2023/11/24 07:30:59;;;;;;;;;;;;;;;5.70;78.69;99525.94;4220187;28;20026;-69
2023/11/24 07:33:02;;;;;;;;;;;;;;;5.66;78.08;99527.28;4220785;28;20026;-69
2023/11/24 07:35:05;;;;;;;;;;;;;;;5.68;78.55;99525.28;4222234;28;20035;-69
2023/11/24 07:37:08;;;;;;;;;;;;;;;5.66;78.00;99527.28;4202171;28;19999;-69
2023/11/24 07:39:10;;;;;;;;;;;;;;;5.67;77.95;99523.63;4220621;28;20022;-68
2023/11/24 07:41:11;;;;;;;;;;;;;;;5.66;78.70;99525.47;4220355;28;19924;-70
2023/11/24 07:43:14;;;;;;;;;;;;;;;5.66;78.79;99521.94;4220296;28;20350;-68
2023/11/24 07:45:16;;;;;;;;;;;;;;;5.66;79.03;99521.94;4221414;28;20015;-69
2023/11/24 07:47:18;;;;;;;;;;;;;;;5.66;79.17;99524.63;4220740;28;20461;-69
2023/11/24 07:49:22;;;;;;;;;;;;;;;5.63;78.46;99527.63;4221163;28;20026;-67
2023/11/24 07:51:25;;;;;;;;;;;;;;;5.63;78.01;99524.97;4220169;28;20428;-70
2023/11/24 07:53:27;;;;;;;;;;;;;;;5.63;77.80;99524.97;4232364;28;19954;-70
2023/11/24 07:55:30;;;;;;;;;;;;;;;5.63;77.97;99533.00;4231265;28;19962;-68
2023/11/24 07:57:32;;;;;;;;;;;;;;;5.63;77.71;99524.97;4235414;28;19958;-69
2023/11/24 07:59:35;;;;;;;;;;;;;;;5.62;77.68;99523.31;4234662;28;20030;-71
2023/11/24 08:01:37;;;;;;;;;;;;;;;5.60;77.07;99527.00;4230032;28;20023;-68
2023/11/24 08:03:38;;;;;;;;;;;;;;;5.62;77.41;99534.84;4223365;28;20397;-70
2023/11/24 08:05:41;;;;;;;;;;;;;;;5.62;77.10;99524.13;4221814;28;19930;-68
2023/11/24 08:07:44;;;;;;;;;;;;;;;5.61;76.63;99525.13;4222977;28;19963;-69
2023/11/24 08:09:46;;;;;;;;;;;;;;;5.62;76.24;99520.63;4224139;28;20398;-69
2023/11/24 08:11:48;;;;;;;;;;;;;;;5.63;76.95;99525.81;4226523;28;20006;-70
2023/11/24 08:13:50;;;;;;;;;;;;;;;5.64;77.00;99526.63;4222043;28;20389;-70
2023/11/24 08:15:53;;;;;;;;;;;;;;;5.64;76.72;99532.00;4225479;28;20429;-70
2023/11/24 08:17:55;;;;;;;;;;;;;;;5.65;76.47;99514.94;4223322;28;20383;-70
2023/11/24 08:19:57;;;;;;;;;;;;;;;5.65;76.85;99515.75;4221100;28;20014;-68
2023/11/24 08:22:00;;;;;;;;;;;;;;;5.67;77.46;99529.78;4222480;28;19928;-71
2023/11/24 08:24:06;;;;;;;;;;;;;;;5.70;77.80;99521.41;4222464;28;20031;-68
2023/11/24 08:26:10;;;;;;;;;;;;;;;5.68;77.14;99520.75;4220620;28;20509;-68
2023/11/24 08:28:12;;;;;;;;;;;;;;;5.68;76.21;99515.41;4222768;28;20026;-68
2023/11/24 08:30:14;;;;;;;;;;;;;;;5.67;76.08;99515.56;4220927;28;19928;-68
2023/11/24 08:32:15;;;;;;;;;;;;;;;5.66;75.73;99527.28;4220521;28;20023;-69
2023/11/24 08:34:17;;;;;;;;;;;;;;;5.69;76.17;99526.94;4221608;28;20341;-70
2023/11/24 08:36:19;;;;;;;;;;;;;;;5.69;76.24;99514.41;4226768;28;19966;-69
2023/11/24 08:38:24;;;;;;;;;;;;;;;5.71;76.61;99525.78;4224195;28;20003;-69
2023/11/24 08:40:26;;;;;;;;;;;;;;;5.73;76.80;99514.88;4223629;28;20405;-68
2023/11/24 08:42:30;;;;;;;;;;;;;;;5.72;76.30;99497.13;4220249;28;20022;-69
2023/11/24 08:44:32;;;;;;;;;;;;;;;5.73;76.19;99507.66;4221429;28;20014;-70
2023/11/24 08:46:34;;;;;;;;;;;;;;;5.72;76.17;99506.00;4225255;28;19924;-69
2023/11/24 08:48:38;;;;;;;;;;;;;;;5.74;75.91;99511.19;4221340;28;19959;-66
2023/11/24 08:50:40;;;;;;;;;;;;;;;5.76;76.28;99503.81;4219397;28;19993;-67
2023/11/24 08:52:47;;;;;;;;;;;;;;;5.77;75.90;99513.53;4221690;28;20031;-67
2023/11/24 08:54:51;;;;;;;;;;;;;;;5.78;76.03;99510.66;4225031;28;19955;-70
2023/11/24 08:56:52;;;;;;;;;;;;;;;5.81;76.24;99512.16;4223689;28;19955;-72
2023/11/24 08:58:57;;;;;;;;;;;;;;;5.82;75.60;99511.16;4225339;28;19924;-71
2023/11/24 09:00:59;;;;;;;;;;;;;;;5.81;74.90;99517.50;4222586;28;20011;-69
2023/11/24 09:03:05;;;;;;;;;;;;;;;5.78;74.54;99513.34;4223509;28;20365;-70
2023/11/24 09:05:09;;;;;;;;;;;;;;;5.79;74.93;99514.19;4224559;28;19958;-72
2023/11/24 09:07:12;;;;;;;;;;;;;;;5.80;74.68;99506.97;4222022;28;20019;-72
2023/11/24 09:09:14;;;;;;;;;;;;;;;5.79;74.43;99511.50;4222790;28;19979;-72
2023/11/24 09:11:17;;;;;;;;;;;;;;;5.78;74.13;99520.53;4219938;28;19983;-72
2023/11/24 09:13:20;;;;;;;;;;;;;;;5.79;74.87;99508.81;4224892;28;20057;-68
2023/11/24 09:15:22;;;;;;;;;;;;;;;5.78;74.85;99515.19;4192836;28;20228;-72
2023/11/24 09:17:24;;;;;;;;;;;;;;;5.81;75.09;99508.66;4226993;28;19948;-69
2023/11/24 09:19:46;;;;;;;;;;;;;;;5.81;74.62;99511.31;4226828;27;19967;-68
2023/11/24 09:21:48;;;;;;;;;;;;;;;5.81;74.25;99514.00;4223982;28;20010;-69
2023/11/24 09:23:50;;;;;;;;;;;;;;;5.78;73.96;99504.47;4223846;28;20039;-71
2023/11/24 09:25:51;;;;;;;;;;;;;;;5.77;74.20;99510.84;4224051;28;19962;-67
2023/11/24 09:27:55;;;;;;;;;;;;;;;5.77;74.69;99500.13;4209192;28;20228;-67
2023/11/24 09:29:58;;;;;;;;;;;;;;;5.78;74.37;99509.81;4224215;28;19951;-67
2023/11/24 09:32:01;;;;;;;;;;;;;;;5.78;74.91;99499.97;4222076;28;20046;-70
2023/11/24 09:34:03;;;;;;;;;;;;;;;5.80;74.65;99496.25;4222090;28;20026;-70
2023/11/24 09:36:06;;;;;;;;;;;;;;;5.80;74.22;99486.38;4222334;28;19991;-71
2023/11/24 09:38:08;;;;;;;;;;;;;;;5.80;73.61;99480.16;4222701;28;19966;-68
2023/11/24 09:40:16;;;;;;;;;;;;;;;5.78;73.91;99481.19;4205128;28;19963;-68
2023/11/24 09:42:18;;;;;;;;;;;;;;;5.82;73.96;99470.13;4234933;27;20412;-68
2023/11/24 09:44:22;;;;;;;;;;;;;;;5.83;74.61;99472.63;4222315;28;19939;-68
2023/11/24 09:46:23;;;;;;;;;;;;;;;5.81;74.48;99480.00;4207132;28;19928;-70
2023/11/24 09:48:26;;;;;;;;;;;;;;;5.85;74.67;99469.78;4223134;28;19970;-65
2023/11/24 09:50:30;;;;;;;;;;;;;;;5.87;74.65;99463.22;4226212;28;19964;-69
2023/11/24 09:52:41;;;;;;;;;;;;;;;5.88;74.48;99467.56;4229693;28;19970;-68
2023/11/24 09:54:43;;;;;;;;;;;;;;;5.87;73.87;99462.38;4221302;28;19970;-68
2023/11/24 09:56:45;;;;;;;;;;;;;;;5.89;73.83;99476.44;4227980;28;20398;-69
2023/11/24 09:58:49;;;;;;;;;;;;;;;5.86;72.96;99464.25;4238159;27;19970;-70
2023/11/24 10:00:53;;;;;;;;;;;;;;;5.87;73.30;99459.72;4221093;28;20022;-70
2023/11/24 10:02:57;;;;;;;;;;;;;;;5.88;73.67;99458.72;4222915;28;19962;-71
2023/11/24 10:04:59;;;;;;;;;;;;;;;5.86;73.70;99461.56;4228103;28;19930;-71
2023/11/24 10:07:02;;;;;;;;;;;;;;;5.86;72.99;99455.34;4226734;28;20018;-70
2023/11/24 10:09:06;;;;;;;;;;;;;;;5.84;72.90;99457.38;4228439;27;19963;-71
2023/11/24 10:11:12;;;;;;;;;;;;;;;5.84;72.99;99452.03;4226482;28;20010;-72
2023/11/24 10:13:17;;;;;;;;;;;;;;;5.84;73.21;99449.34;4221948;28;19961;-72
2023/11/24 10:15:21;;;;;;;;;;;;;;;5.82;73.16;99444.16;4221725;28;20022;-66
2023/11/24 10:17:24;;;;;;;;;;;;;;;5.83;73.18;99443.16;4224833;28;20026;-71
2023/11/24 10:19:27;;;;;;;;;;;;;;;5.82;72.28;99429.94;4226532;28;20007;-69
2023/11/24 10:21:32;;;;;;;;;;;;;;;5.81;72.00;99436.28;4230065;28;19924;-70
2023/11/24 10:23:35;;;;;;;;;;;;;;;5.81;72.24;99437.13;4224998;28;19930;-69
2023/11/24 10:25:37;;;;;;;;;;;;;;;5.82;72.51;99421.91;4223378;28;20076;-69
2023/11/24 10:27:40;;;;;;;;;;;;;;;5.81;72.59;99426.41;4223569;28;20449;-69
2023/11/24 10:29:42;;;;;;;;;;;;;;;5.81;72.48;99409.50;4223813;28;20386;-68
2023/11/24 10:31:44;;;;;;;;;;;;;;;5.81;72.56;99421.03;4224121;28;20019;-68
2023/11/24 10:33:48;;;;;;;;;;;;;;;5.83;72.81;99407.47;4223001;28;20018;-68
2023/11/24 10:35:50;;;;;;;;;;;;;;;5.81;72.63;99402.28;4223850;28;20015;-68
2023/11/24 10:37:50;;;;;;;;;;;;;;;5.83;72.24;99386.03;4222927;27;20478;-70
2023/11/24 10:39:53;;;;;;;;;;;;;;;5.83;72.71;99396.75;4223474;28;20120;-69
2023/11/24 10:41:55;;;;;;;;;;;;;;;5.83;72.48;99386.88;4223766;28;20014;-67
2023/11/24 10:43:57;;;;;;;;;;;;;;;5.83;72.40;99392.25;4224545;28;20015;-70
2023/11/24 10:46:01;;;;;;;;;;;;;;;5.83;71.50;99391.41;4225988;28;20486;-69